Time;durP1;ratioP1;P1;durP2;ratioP2;P2;SDS_P1;SDS_P2;PMS_P1;PMS_P2;Temp;Humidity;BMP_temperature;BMP_pressure;BME280_temperature;BME280_humidity;BME280_pressure;Samples;Min_cycle;Max_cycle;Signal;HPM_P1;HPM_P2
2023/08/13 00:00:34;;;;;;;2.67;1.95;;;;;;;;;;2094533;28;20039;-66
2023/08/13 00:01:53;;;;;;;2.92;1.90;;;;;;;;;;2099269;28;20104;-67
2023/08/13 00:03:12;;;;;;;3.60;2.17;;;;;;;;;;2099179;28;20488;-67
2023/08/13 00:04:31;;;;;;;3.20;2.03;;;;;;;;;;2094886;28;20028;-67
2023/08/13 00:05:50;;;;;;;4.22;2.28;;;;;;;;;;2094832;28;20151;-66
2023/08/13 00:07:10;;;;;;;2.67;1.77;;;;;;;;;;2098647;28;20055;-68
2023/08/13 00:08:28;;;;;;;2.33;2.00;;;;;;;;;;2098861;28;20024;-66
2023/08/13 00:09:47;;;;;;;2.63;2.20;;;;;;;;;;2098256;28;20028;-66
2023/08/13 00:11:13;;;;;;;5.57;2.13;;;;;;;;;;2099388;28;20024;-68
2023/08/13 00:12:32;;;;;;;4.07;1.92;;;;;;;;;;2098084;28;20435;-67
2023/08/13 00:13:51;;;;;;;2.20;2.00;;;;;;;;;;2096066;28;20516;-67
2023/08/13 00:15:11;;;;;;;3.75;2.35;;;;;;;;;;2096005;28;20485;-67
2023/08/13 00:16:30;;;;;;;5.15;2.50;;;;;;;;;;2097786;28;20500;-67
2023/08/13 00:17:49;;;;;;;2.83;1.98;;;;;;;;;;2095817;28;20040;-68
2023/08/13 00:19:08;;;;;;;2.70;1.90;;;;;;;;;;2096679;28;20024;-67
2023/08/13 00:20:27;;;;;;;3.55;2.03;;;;;;;;;;2092215;28;20037;-67
2023/08/13 00:21:46;;;;;;;2.05;1.80;;;;;;;;;;2085610;28;20528;-66
2023/08/13 00:23:05;;;;;;;5.70;1.92;;;;;;;;;;2096915;28;20099;-67
2023/08/13 00:24:24;;;;;;;3.88;2.10;;;;;;;;;;2102505;28;20020;-67
2023/08/13 00:25:42;;;;;;;4.25;2.20;;;;;;;;;;2099842;28;20481;-66
2023/08/13 00:27:02;;;;;;;3.45;1.77;;;;;;;;;;2101730;28;20028;-67
2023/08/13 00:28:20;;;;;;;2.17;1.90;;;;;;;;;;2097593;28;20377;-67
2023/08/13 00:29:40;;;;;;;2.00;1.90;;;;;;;;;;2099402;28;21277;-66
2023/08/13 00:30:59;;;;;;;3.70;1.92;;;;;;;;;;2100850;28;20016;-66
2023/08/13 00:32:18;;;;;;;2.17;1.80;;;;;;;;;;2096693;28;20020;-67
2023/08/13 00:33:37;;;;;;;4.35;1.73;;;;;;;;;;2097345;28;20045;-67
2023/08/13 00:34:56;;;;;;;2.95;2.08;;;;;;;;;;2090393;28;20024;-65
2023/08/13 00:36:15;;;;;;;1.83;1.60;;;;;;;;;;2082481;28;20037;-69
2023/08/13 00:37:35;;;;;;;4.20;2.10;;;;;;;;;;2093373;28;20484;-67
2023/08/13 00:38:54;;;;;;;2.72;1.77;;;;;;;;;;2097786;28;20032;-69
2023/08/13 00:40:13;;;;;;;3.50;1.92;;;;;;;;;;2090641;28;20037;-69
2023/08/13 00:41:32;;;;;;;3.80;2.20;;;;;;;;;;2093867;28;20493;-65
2023/08/13 00:42:51;;;;;;;4.38;1.73;;;;;;;;;;2099916;28;20071;-70
2023/08/13 00:44:10;;;;;;;6.75;2.03;;;;;;;;;;2097588;28;20052;-68
2023/08/13 00:45:31;;;;;;;4.75;1.83;;;;;;;;;;2097041;28;20032;-69
2023/08/13 00:46:50;;;;;;;2.80;1.80;;;;;;;;;;2100445;28;20111;-71
2023/08/13 00:48:09;;;;;;;3.05;1.80;;;;;;;;;;2090146;28;20107;-69
2023/08/13 00:49:29;;;;;;;6.25;1.83;;;;;;;;;;2093662;28;20025;-69
2023/08/13 00:50:48;;;;;;;2.67;1.88;;;;;;;;;;2092150;28;20028;-66
2023/08/13 00:52:07;;;;;;;2.20;1.75;;;;;;;;;;2094389;28;20029;-67
2023/08/13 00:53:27;;;;;;;2.42;1.85;;;;;;;;;;2099193;28;20103;-68
2023/08/13 00:54:47;;;;;;;3.15;1.80;;;;;;;;;;2100912;28;20032;-66
2023/08/13 00:56:05;;;;;;;3.13;2.38;;;;;;;;;;2096198;28;20393;-66
2023/08/13 00:57:25;;;;;;;5.00;2.22;;;;;;;;;;2099775;28;20028;-67
2023/08/13 00:58:44;;;;;;;2.72;1.92;;;;;;;;;;2102763;28;20024;-70
2023/08/13 01:00:06;;;;;;;5.35;2.03;;;;;;;;;;2086745;28;20056;-66
2023/08/13 01:01:25;;;;;;;2.93;2.00;;;;;;;;;;2096604;28;20028;-69
2023/08/13 01:02:45;;;;;;;4.93;2.35;;;;;;;;;;2097467;28;20044;-67
2023/08/13 01:04:04;;;;;;;4.38;2.10;;;;;;;;;;2098076;28;20032;-67
2023/08/13 01:05:27;;;;;;;2.60;1.90;;;;;;;;;;2100249;28;20033;-64
2023/08/13 01:07:02;;;;;;;2.22;1.83;;;;;;;;;;2097531;28;20032;-66
2023/08/13 01:08:21;;;;;;;2.83;2.05;;;;;;;;;;2099866;28;20468;-66
2023/08/13 01:09:50;;;;;;;3.97;1.83;;;;;;;;;;2098104;28;20020;-65
2023/08/13 01:11:17;;;;;;;4.25;2.20;;;;;;;;;;2102288;28;20393;-69
2023/08/13 01:12:54;;;;;;;3.28;1.95;;;;;;;;;;2097765;28;20025;-69
2023/08/13 01:14:23;;;;;;;3.08;1.92;;;;;;;;;;2096013;28;20032;-66
2023/08/13 01:15:44;;;;;;;3.72;2.08;;;;;;;;;;2095341;28;20592;-67
2023/08/13 01:17:04;;;;;;;3.08;2.30;;;;;;;;;;2099810;28;20484;-67
2023/08/13 01:18:24;;;;;;;3.38;1.98;;;;;;;;;;2100921;28;20024;-68
2023/08/13 01:19:42;;;;;;;3.97;2.00;;;;;;;;;;2098836;28;20031;-67
2023/08/13 01:21:01;;;;;;;3.53;2.20;;;;;;;;;;2098045;28;20055;-67
2023/08/13 01:22:21;;;;;;;3.25;1.92;;;;;;;;;;2098858;28;20048;-67
2023/08/13 01:23:40;;;;;;;2.88;2.00;;;;;;;;;;2096745;28;20075;-67
2023/08/13 01:24:59;;;;;;;3.90;2.22;;;;;;;;;;2098660;28;20020;-66
2023/08/13 01:26:21;;;;;;;3.72;2.00;;;;;;;;;;2099270;28;20488;-67
2023/08/13 01:27:59;;;;;;;5.35;2.35;;;;;;;;;;2100969;28;20060;-65
2023/08/13 01:29:20;;;;;;;3.28;1.88;;;;;;;;;;2100239;28;20492;-66
2023/08/13 01:30:51;;;;;;;3.33;2.33;;;;;;;;;;2093562;28;20017;-66
2023/08/13 01:32:13;;;;;;;9.35;2.50;;;;;;;;;;2096107;28;20024;-68
2023/08/13 01:33:34;;;;;;;6.93;2.40;;;;;;;;;;2096864;28;20040;-67
2023/08/13 01:34:53;;;;;;;3.33;2.15;;;;;;;;;;2100738;28;20024;-67
2023/08/13 01:36:16;;;;;;;7.05;2.35;;;;;;;;;;2097979;28;20029;-69
2023/08/13 01:37:35;;;;;;;2.50;2.25;;;;;;;;;;2098002;28;20102;-67
2023/08/13 01:38:55;;;;;;;5.35;2.33;;;;;;;;;;2098389;28;20428;-67
2023/08/13 01:40:13;;;;;;;3.40;2.13;;;;;;;;;;2097938;28;20060;-69
2023/08/13 01:41:34;;;;;;;2.70;1.95;;;;;;;;;;2088155;28;20032;-65
2023/08/13 01:42:54;;;;;;;3.65;2.40;;;;;;;;;;2091048;28;20028;-67
2023/08/13 01:44:14;;;;;;;4.68;1.92;;;;;;;;;;2100044;28;20601;-65
2023/08/13 01:45:33;;;;;;;2.42;2.20;;;;;;;;;;2096603;28;20016;-67
2023/08/13 01:46:51;;;;;;;4.90;2.75;;;;;;;;;;2088186;28;20025;-67
2023/08/13 01:48:11;;;;;;;4.78;2.60;;;;;;;;;;2092846;28;20028;-66
2023/08/13 01:49:31;;;;;;;4.40;2.30;;;;;;;;;;2098034;28;20052;-65
2023/08/13 01:50:50;;;;;;;4.60;2.17;;;;;;;;;;2091862;28;20506;-67
2023/08/13 01:52:09;;;;;;;7.85;2.25;;;;;;;;;;2093333;28;20489;-67
2023/08/13 01:53:28;;;;;;;3.92;2.28;;;;;;;;;;2097727;28;20040;-66
2023/08/13 01:54:47;;;;;;;3.70;2.33;;;;;;;;;;2096528;28;20021;-66
2023/08/13 01:56:06;;;;;;;3.85;2.35;;;;;;;;;;2097955;28;20017;-66
2023/08/13 01:57:25;;;;;;;2.95;2.65;;;;;;;;;;2096525;28;20041;-66
2023/08/13 01:58:44;;;;;;;6.75;2.50;;;;;;;;;;2097529;28;20032;-68
2023/08/13 02:00:04;;;;;;;2.38;2.08;;;;;;;;;;2096946;28;20037;-66
2023/08/13 02:01:23;;;;;;;4.63;2.30;;;;;;;;;;2100231;28;20504;-66
2023/08/13 02:02:41;;;;;;;5.05;2.60;;;;;;;;;;2099481;28;20048;-67
2023/08/13 02:04:00;;;;;;;3.88;2.30;;;;;;;;;;2098150;28;20032;-67
2023/08/13 02:05:19;;;;;;;4.20;2.58;;;;;;;;;;2098373;28;20052;-66
2023/08/13 02:06:38;;;;;;;2.95;2.20;;;;;;;;;;2098159;28;20028;-66
2023/08/13 02:07:58;;;;;;;2.45;2.20;;;;;;;;;;2095340;28;20144;-66
2023/08/13 02:09:17;;;;;;;2.88;2.40;;;;;;;;;;2096571;28;20531;-68
2023/08/13 02:10:35;;;;;;;3.60;2.45;;;;;;;;;;2099926;28;20020;-67
2023/08/13 02:11:54;;;;;;;3.53;2.60;;;;;;;;;;2098444;28;20024;-67
2023/08/13 02:13:13;;;;;;;3.28;2.20;;;;;;;;;;2088989;28;20625;-66
2023/08/13 02:14:32;;;;;;;3.40;2.45;;;;;;;;;;2096107;28;20036;-65
2023/08/13 02:15:51;;;;;;;4.03;2.45;;;;;;;;;;2087843;28;20032;-68
2023/08/13 02:17:12;;;;;;;2.92;2.03;;;;;;;;;;2095984;28;20103;-67
2023/08/13 02:18:32;;;;;;;7.87;2.37;;;;;;;;;;2100707;28;20489;-66
2023/08/13 02:19:51;;;;;;;3.80;2.45;;;;;;;;;;2096320;28;20024;-67
2023/08/13 02:21:10;;;;;;;5.43;2.50;;;;;;;;;;2098294;28;20025;-67
2023/08/13 02:22:29;;;;;;;3.17;2.30;;;;;;;;;;2100370;28;20096;-66
2023/08/13 02:23:48;;;;;;;4.93;2.35;;;;;;;;;;2089964;28;20040;-66
2023/08/13 02:25:07;;;;;;;2.60;2.30;;;;;;;;;;2096203;28;20024;-68
2023/08/13 02:26:26;;;;;;;5.43;2.70;;;;;;;;;;2091799;28;20064;-65
2023/08/13 02:27:45;;;;;;;4.20;2.10;;;;;;;;;;2094276;28;20051;-67
2023/08/13 02:29:04;;;;;;;4.03;2.38;;;;;;;;;;2091301;28;20029;-69
2023/08/13 02:30:23;;;;;;;3.17;2.47;;;;;;;;;;2092822;28;20029;-68
2023/08/13 02:31:42;;;;;;;4.82;2.80;;;;;;;;;;2097718;28;20035;-68
2023/08/13 02:33:01;;;;;;;4.75;2.58;;;;;;;;;;2097547;28;20020;-67
2023/08/13 02:34:20;;;;;;;3.38;2.10;;;;;;;;;;2099797;28;20419;-68
2023/08/13 02:35:39;;;;;;;5.53;2.38;;;;;;;;;;2098113;28;20028;-68
2023/08/13 02:36:58;;;;;;;5.65;2.42;;;;;;;;;;2098632;28;20017;-67
2023/08/13 02:38:18;;;;;;;4.35;2.25;;;;;;;;;;2099453;28;20032;-68
2023/08/13 02:39:37;;;;;;;3.05;2.30;;;;;;;;;;2091197;28;20028;-67
2023/08/13 02:40:56;;;;;;;3.25;2.28;;;;;;;;;;2100416;28;20345;-67
2023/08/13 02:42:15;;;;;;;7.13;2.30;;;;;;;;;;2099146;28;20036;-69
2023/08/13 02:43:49;;;;;;;2.50;2.30;;;;;;;;;;2096295;28;20488;-67
2023/08/13 02:45:08;;;;;;;6.95;2.70;;;;;;;;;;2097760;28;20036;-67
2023/08/13 02:46:27;;;;;;;5.22;2.45;;;;;;;;;;2098548;28;20033;-67
2023/08/13 02:47:46;;;;;;;4.32;2.47;;;;;;;;;;2096395;28;20087;-66
2023/08/13 02:49:05;;;;;;;5.70;2.67;;;;;;;;;;2099489;28;20052;-67
2023/08/13 02:50:24;;;;;;;6.40;3.10;;;;;;;;;;2098711;28;20029;-67
2023/08/13 02:51:43;;;;;;;4.60;2.70;;;;;;;;;;2091870;28;20020;-67
2023/08/13 02:53:02;;;;;;;3.60;2.58;;;;;;;;;;2097880;28;20021;-67
2023/08/13 02:54:21;;;;;;;4.57;2.70;;;;;;;;;;2099365;28;20033;-68
2023/08/13 02:55:40;;;;;;;6.13;2.70;;;;;;;;;;2097836;28;21542;-67
2023/08/13 02:56:59;;;;;;;3.97;2.58;;;;;;;;;;2094930;28;20054;-67
2023/08/13 02:58:18;;;;;;;5.43;2.70;;;;;;;;;;2100160;28;20024;-68
2023/08/13 02:59:37;;;;;;;3.97;2.30;;;;;;;;;;2096789;28;20024;-67
2023/08/13 03:00:56;;;;;;;4.03;2.47;;;;;;;;;;2097043;28;20024;-67
2023/08/13 03:02:16;;;;;;;3.85;2.47;;;;;;;;;;2087317;28;20021;-67
2023/08/13 03:03:36;;;;;;;2.78;2.50;;;;;;;;;;2078218;28;20021;-67
2023/08/13 03:04:55;;;;;;;3.80;3.08;;;;;;;;;;2087551;28;20029;-67
2023/08/13 03:06:14;;;;;;;4.63;2.70;;;;;;;;;;2088288;28;20033;-67
2023/08/13 03:07:33;;;;;;;5.00;2.50;;;;;;;;;;2079020;28;20025;-66
2023/08/13 03:08:52;;;;;;;3.72;2.53;;;;;;;;;;2089544;28;20025;-67
2023/08/13 03:10:12;;;;;;;4.78;2.83;;;;;;;;;;2080848;28;20552;-66
2023/08/13 03:11:34;;;;;;;5.82;2.58;;;;;;;;;;2085464;28;20028;-67
2023/08/13 03:12:53;;;;;;;7.13;2.63;;;;;;;;;;2079911;28;20486;-66
2023/08/13 03:14:12;;;;;;;3.55;2.63;;;;;;;;;;2085632;28;20029;-67
2023/08/13 03:15:31;;;;;;;3.30;2.25;;;;;;;;;;2087016;28;20021;-67
2023/08/13 03:16:49;;;;;;;3.42;2.20;;;;;;;;;;2092247;28;20612;-66
2023/08/13 03:18:09;;;;;;;4.38;2.55;;;;;;;;;;2088979;28;20033;-67
2023/08/13 03:19:28;;;;;;;3.13;2.70;;;;;;;;;;2090376;28;20486;-67
2023/08/13 03:20:47;;;;;;;7.13;2.80;;;;;;;;;;2084457;28;20041;-65
2023/08/13 03:22:06;;;;;;;4.47;2.70;;;;;;;;;;2078447;28;20109;-63
2023/08/13 03:23:25;;;;;;;6.40;2.63;;;;;;;;;;2083969;28;20510;-65
2023/08/13 03:24:44;;;;;;;3.47;2.08;;;;;;;;;;2090584;28;20068;-67
2023/08/13 03:26:04;;;;;;;5.50;2.50;;;;;;;;;;2087778;28;20021;-65
2023/08/13 03:27:23;;;;;;;8.60;2.90;;;;;;;;;;2091719;28;20413;-66
2023/08/13 03:28:42;;;;;;;2.95;1.98;;;;;;;;;;2089263;28;20135;-66
2023/08/13 03:30:01;;;;;;;3.83;2.22;;;;;;;;;;2086845;28;20025;-65
2023/08/13 03:31:20;;;;;;;2.53;2.33;;;;;;;;;;2078828;28;20037;-65
2023/08/13 03:32:39;;;;;;;5.05;2.30;;;;;;;;;;2089124;28;20322;-66
2023/08/13 03:33:58;;;;;;;4.60;2.40;;;;;;;;;;2088708;28;20392;-66
2023/08/13 03:35:17;;;;;;;2.80;1.90;;;;;;;;;;2089948;28;20059;-66
2023/08/13 03:36:36;;;;;;;5.13;2.38;;;;;;;;;;2081141;28;20029;-66
2023/08/13 03:37:55;;;;;;;4.97;2.90;;;;;;;;;;2078105;28;20024;-66
2023/08/13 03:39:13;;;;;;;3.38;2.22;;;;;;;;;;2086152;28;20032;-66
2023/08/13 03:40:32;;;;;;;2.20;2.00;;;;;;;;;;2089121;28;20029;-66
2023/08/13 03:41:51;;;;;;;4.72;1.98;;;;;;;;;;2090734;28;20033;-65
2023/08/13 03:43:10;;;;;;;4.35;2.25;;;;;;;;;;2089917;28;20033;-66
2023/08/13 03:44:29;;;;;;;4.78;2.10;;;;;;;;;;2090664;28;20482;-66
2023/08/13 03:45:48;;;;;;;5.93;2.15;;;;;;;;;;2090870;28;20025;-65
2023/08/13 03:47:07;;;;;;;4.65;2.15;;;;;;;;;;2092034;28;20028;-65
2023/08/13 03:48:26;;;;;;;3.22;2.28;;;;;;;;;;2090343;28;20040;-66
2023/08/13 03:49:45;;;;;;;2.50;1.95;;;;;;;;;;2089345;28;20025;-66
2023/08/13 03:51:04;;;;;;;4.43;2.03;;;;;;;;;;2092423;28;20497;-66
2023/08/13 03:52:23;;;;;;;5.03;2.15;;;;;;;;;;2088572;28;20033;-66
2023/08/13 03:53:42;;;;;;;3.97;1.75;;;;;;;;;;2088006;28;20029;-65
2023/08/13 03:55:02;;;;;;;2.90;2.00;;;;;;;;;;2091937;28;20028;-66
2023/08/13 03:56:23;;;;;;;4.28;2.35;;;;;;;;;;2088576;28;20032;-68
2023/08/13 03:57:42;;;;;;;2.17;1.85;;;;;;;;;;2090222;28;20025;-65
2023/08/13 03:59:01;;;;;;;4.07;1.83;;;;;;;;;;2091329;28;20021;-66
2023/08/13 04:00:20;;;;;;;2.50;1.90;;;;;;;;;;2080056;28;20065;-66
2023/08/13 04:01:39;;;;;;;3.20;2.05;;;;;;;;;;2076297;28;20033;-66
2023/08/13 04:02:58;;;;;;;4.28;2.03;;;;;;;;;;2085604;28;20057;-66
2023/08/13 04:04:18;;;;;;;3.42;1.90;;;;;;;;;;2085964;28;20048;-66
2023/08/13 04:05:37;;;;;;;6.57;2.88;;;;;;;;;;2090414;28;20116;-66
2023/08/13 04:06:56;;;;;;;3.00;1.92;;;;;;;;;;2089719;28;20104;-66
2023/08/13 04:08:15;;;;;;;3.40;1.50;;;;;;;;;;2088222;28;20036;-66
2023/08/13 04:09:34;;;;;;;3.95;2.08;;;;;;;;;;2089184;28;20060;-69
2023/08/13 04:10:53;;;;;;;3.50;2.53;;;;;;;;;;2092726;28;20025;-68
2023/08/13 04:12:12;;;;;;;5.50;2.00;;;;;;;;;;2090360;28;20506;-67
2023/08/13 04:13:31;;;;;;;2.10;1.88;;;;;;;;;;2078536;28;20036;-67
2023/08/13 04:14:50;;;;;;;2.17;1.90;;;;;;;;;;2086115;28;20018;-67
2023/08/13 04:16:09;;;;;;;4.10;1.92;;;;;;;;;;2089103;28;20034;-66
2023/08/13 04:17:28;;;;;;;3.63;2.03;;;;;;;;;;2089921;28;20028;-68
2023/08/13 04:18:46;;;;;;;4.05;1.85;;;;;;;;;;2088627;28;20024;-66
2023/08/13 04:20:06;;;;;;;5.75;1.73;;;;;;;;;;2089868;28;20052;-67
2023/08/13 04:21:25;;;;;;;5.40;1.80;;;;;;;;;;2079120;28;21320;-65
2023/08/13 04:22:45;;;;;;;5.35;2.17;;;;;;;;;;2084155;28;20024;-65
2023/08/13 04:24:04;;;;;;;3.17;1.92;;;;;;;;;;2088854;28;20029;-67
2023/08/13 04:25:25;;;;;;;3.30;2.08;;;;;;;;;;2092177;28;20033;-67
2023/08/13 04:26:44;;;;;;;4.88;2.13;;;;;;;;;;2092068;28;20029;-67
2023/08/13 04:28:03;;;;;;;3.95;1.88;;;;;;;;;;2081206;28;20029;-65
2023/08/13 04:29:22;;;;;;;2.95;1.75;;;;;;;;;;2086674;28;20029;-67
2023/08/13 04:30:41;;;;;;;4.03;1.80;;;;;;;;;;2089833;28;20020;-67
2023/08/13 04:32:00;;;;;;;3.20;2.00;;;;;;;;;;2084119;28;20033;-67
2023/08/13 04:33:19;;;;;;;5.60;2.40;;;;;;;;;;2086918;28;20444;-66
2023/08/13 04:34:38;;;;;;;4.47;1.90;;;;;;;;;;2085093;28;20029;-67
2023/08/13 04:35:57;;;;;;;4.03;1.90;;;;;;;;;;2092295;28;20465;-66
2023/08/13 04:37:16;;;;;;;3.78;1.63;;;;;;;;;;2083859;28;20120;-66
2023/08/13 04:38:34;;;;;;;5.93;2.20;;;;;;;;;;2087711;28;20111;-66
2023/08/13 04:39:56;;;;;;;1.73;1.55;;;;;;;;;;2090578;28;20025;-67
2023/08/13 04:41:15;;;;;;;5.07;2.10;;;;;;;;;;2090997;28;20024;-66
2023/08/13 04:42:34;;;;;;;4.00;1.70;;;;;;;;;;2091415;28;20017;-65
2023/08/13 04:43:53;;;;;;;4.30;2.00;;;;;;;;;;2091329;28;20117;-66
2023/08/13 04:45:12;;;;;;;1.98;1.70;;;;;;;;;;2089896;28;20025;-66
2023/08/13 04:46:31;;;;;;;4.70;1.70;;;;;;;;;;2090766;28;20029;-66
2023/08/13 04:47:51;;;;;;;3.25;2.20;;;;;;;;;;2089385;28;20021;-66
2023/08/13 04:49:09;;;;;;;3.45;1.90;;;;;;;;;;2091170;28;20028;-66
2023/08/13 04:50:28;;;;;;;3.75;1.80;;;;;;;;;;2093011;28;20045;-66
2023/08/13 04:51:47;;;;;;;3.97;2.00;;;;;;;;;;2089590;28;20029;-64
2023/08/13 04:53:06;;;;;;;2.10;1.90;;;;;;;;;;2089673;28;20096;-66
2023/08/13 04:54:25;;;;;;;3.03;2.08;;;;;;;;;;2089820;28;20033;-65
2023/08/13 04:55:44;;;;;;;2.15;1.70;;;;;;;;;;2091894;28;20056;-65
2023/08/13 04:57:03;;;;;;;3.20;2.20;;;;;;;;;;2090636;28;20033;-65
2023/08/13 04:58:22;;;;;;;3.13;1.90;;;;;;;;;;2088361;28;20037;-67
2023/08/13 04:59:41;;;;;;;5.38;2.20;;;;;;;;;;2089433;28;20033;-67
2023/08/13 05:01:00;;;;;;;4.50;2.10;;;;;;;;;;2091216;28;20474;-66
2023/08/13 05:02:19;;;;;;;3.28;1.98;;;;;;;;;;2094976;28;20472;-67
2023/08/13 05:03:39;;;;;;;2.85;2.50;;;;;;;;;;2091444;28;20498;-66
2023/08/13 05:04:59;;;;;;;3.45;2.33;;;;;;;;;;2093721;28;20527;-66
2023/08/13 05:06:18;;;;;;;6.40;2.30;;;;;;;;;;2090886;28;20036;-67
2023/08/13 05:07:37;;;;;;;4.88;1.90;;;;;;;;;;2096113;28;20020;-65
2023/08/13 05:08:56;;;;;;;2.92;2.15;;;;;;;;;;2100771;28;20058;-66
2023/08/13 05:10:15;;;;;;;2.53;2.33;;;;;;;;;;2102007;28;20040;-66
2023/08/13 05:11:34;;;;;;;2.50;2.20;;;;;;;;;;2099135;28;20420;-67
2023/08/13 05:12:53;;;;;;;4.13;2.10;;;;;;;;;;2101208;28;20028;-67
2023/08/13 05:14:12;;;;;;;2.47;2.15;;;;;;;;;;2101551;28;20032;-66
2023/08/13 05:15:31;;;;;;;2.30;2.05;;;;;;;;;;2099623;28;20020;-66
2023/08/13 05:16:49;;;;;;;2.40;2.05;;;;;;;;;;2099978;28;20032;-67
2023/08/13 05:18:08;;;;;;;2.40;2.20;;;;;;;;;;2100956;28;20142;-66
2023/08/13 05:19:28;;;;;;;2.70;2.28;;;;;;;;;;2100153;28;20029;-65
2023/08/13 05:20:47;;;;;;;2.42;1.95;;;;;;;;;;2100466;28;20028;-66
2023/08/13 05:22:06;;;;;;;2.95;2.30;;;;;;;;;;2083544;28;20029;-66
2023/08/13 05:23:24;;;;;;;3.33;2.50;;;;;;;;;;2092888;28;20033;-66
2023/08/13 05:24:44;;;;;;;3.28;2.25;;;;;;;;;;2100729;28;20016;-67
2023/08/13 05:26:03;;;;;;;5.05;2.30;;;;;;;;;;2091568;28;20024;-68
2023/08/13 05:27:22;;;;;;;2.75;1.95;;;;;;;;;;2088892;28;20511;-70
2023/08/13 05:28:41;;;;;;;3.78;2.40;;;;;;;;;;2097413;28;20055;-68
2023/08/13 05:30:01;;;;;;;4.38;2.30;;;;;;;;;;2099782;28;20052;-67
2023/08/13 05:31:20;;;;;;;3.90;2.20;;;;;;;;;;2100672;28;20020;-66
2023/08/13 05:32:39;;;;;;;2.05;1.95;;;;;;;;;;2085226;28;20506;-68
2023/08/13 05:33:58;;;;;;;2.63;2.00;;;;;;;;;;2090031;28;20045;-67
2023/08/13 05:35:17;;;;;;;4.20;2.60;;;;;;;;;;2091233;28;20028;-69
2023/08/13 05:36:36;;;;;;;4.50;2.47;;;;;;;;;;2099530;28;20032;-68
2023/08/13 05:37:55;;;;;;;4.20;2.15;;;;;;;;;;2096879;28;20025;-68
2023/08/13 05:39:16;;;;;;;4.22;2.50;;;;;;;;;;2090952;28;20513;-68
2023/08/13 05:40:35;;;;;;;5.03;2.40;;;;;;;;;;2095802;28;20036;-67
2023/08/13 05:41:54;;;;;;;2.83;2.47;;;;;;;;;;2098875;28;20520;-67
2023/08/13 05:43:13;;;;;;;3.95;2.33;;;;;;;;;;2089651;28;20045;-67
2023/08/13 05:44:32;;;;;;;2.78;2.40;;;;;;;;;;2096816;28;20021;-67
2023/08/13 05:45:51;;;;;;;3.28;2.78;;;;;;;;;;2099145;28;20021;-67
2023/08/13 05:47:10;;;;;;;4.93;2.25;;;;;;;;;;2099760;28;20029;-66
2023/08/13 05:48:29;;;;;;;5.38;2.60;;;;;;;;;;2100152;28;20028;-67
2023/08/13 05:49:48;;;;;;;3.90;2.55;;;;;;;;;;2097367;28;20021;-66
2023/08/13 05:51:07;;;;;;;3.33;2.60;;;;;;;;;;2097050;28;20036;-66
2023/08/13 05:52:26;;;;;;;5.32;3.30;;;;;;;;;;2100901;28;20036;-66
2023/08/13 05:53:45;;;;;;;2.83;2.30;;;;;;;;;;2097319;28;20029;-66
2023/08/13 05:55:04;;;;;;;5.40;3.17;;;;;;;;;;2099887;28;20028;-66
2023/08/13 05:56:23;;;;;;;3.08;2.80;;;;;;;;;;2100920;28;20049;-66
2023/08/13 05:57:42;;;;;;;2.95;2.75;;;;;;;;;;2101592;28;20380;-66
2023/08/13 05:59:01;;;;;;;4.95;2.65;;;;;;;;;;2089906;28;20133;-67
2023/08/13 06:00:20;;;;;;;5.93;3.30;;;;;;;;;;2093180;28;20033;-66
2023/08/13 06:01:39;;;;;;;4.60;2.90;;;;;;;;;;2098989;28;20032;-66
2023/08/13 06:02:58;;;;;;;6.43;3.00;;;;;;;;;;2101087;28;20504;-67
2023/08/13 06:04:17;;;;;;;4.18;3.10;;;;;;;;;;2094702;28;20036;-66
2023/08/13 06:05:37;;;;;;;5.18;3.10;;;;;;;;;;2098594;28;20489;-67
2023/08/13 06:06:56;;;;;;;4.65;2.80;;;;;;;;;;2100770;28;20036;-66
2023/08/13 06:08:15;;;;;;;4.00;3.05;;;;;;;;;;2099471;28;20056;-66
2023/08/13 06:09:34;;;;;;;4.18;3.15;;;;;;;;;;2098768;28;20053;-67
2023/08/13 06:10:53;;;;;;;6.07;3.17;;;;;;;;;;2095254;28;20029;-67
2023/08/13 06:12:12;;;;;;;6.75;3.25;;;;;;;;;;2089330;28;20026;-66
2023/08/13 06:13:30;;;;;;;4.45;3.03;;;;;;;;;;2095758;28;20099;-66
2023/08/13 06:14:49;;;;;;;3.50;2.97;;;;;;;;;;2099288;28;20028;-66
2023/08/13 06:16:08;;;;;;;5.30;3.38;;;;;;;;;;2098842;28;20432;-68
2023/08/13 06:17:27;;;;;;;3.85;2.60;;;;;;;;;;2096134;28;20522;-66
2023/08/13 06:18:46;;;;;;;3.50;2.47;;;;;;;;;;2095974;28;20082;-67
2023/08/13 06:20:06;;;;;;;5.20;3.17;;;;;;;;;;2095909;28;20477;-65
2023/08/13 06:21:25;;;;;;;5.55;2.88;;;;;;;;;;2100047;28;20029;-65
2023/08/13 06:22:44;;;;;;;6.85;3.22;;;;;;;;;;2097644;28;20028;-65
2023/08/13 06:24:05;;;;;;;4.75;2.78;;;;;;;;;;2097098;28;20021;-65
2023/08/13 06:25:24;;;;;;;5.93;2.75;;;;;;;;;;2099073;28;20032;-66
2023/08/13 06:26:43;;;;;;;8.15;3.08;;;;;;;;;;2100047;28;20533;-66
2023/08/13 06:28:02;;;;;;;3.33;2.65;;;;;;;;;;2098239;28;20036;-66
2023/08/13 06:29:21;;;;;;;6.75;3.08;;;;;;;;;;2098714;28;20111;-66
2023/08/13 06:30:42;;;;;;;5.20;2.70;;;;;;;;;;2098228;28;20028;-65
2023/08/13 06:32:01;;;;;;;5.45;2.90;;;;;;;;;;2099611;28;20020;-66
2023/08/13 06:33:20;;;;;;;5.57;2.70;;;;;;;;;;2089435;28;20037;-66
2023/08/13 06:34:39;;;;;;;5.45;3.13;;;;;;;;;;2091946;28;20032;-66
2023/08/13 06:35:58;;;;;;;7.85;3.92;;;;;;;;;;2097837;28;20025;-66
2023/08/13 06:37:17;;;;;;;7.25;3.38;;;;;;;;;;2098931;28;20538;-66
2023/08/13 06:38:37;;;;;;;7.07;3.38;;;;;;;;;;2098349;28;20151;-66
2023/08/13 06:39:56;;;;;;;5.20;3.03;;;;;;;;;;2098288;28;20076;-67
2023/08/13 06:41:14;;;;;;;7.25;3.33;;;;;;;;;;2098706;28;20107;-66
2023/08/13 06:42:33;;;;;;;7.30;3.30;;;;;;;;;;2100516;28;20032;-66
2023/08/13 06:43:52;;;;;;;7.45;2.80;;;;;;;;;;2100406;28;20024;-65
2023/08/13 06:45:12;;;;;;;7.43;3.25;;;;;;;;;;2098184;28;20012;-65
2023/08/13 06:46:32;;;;;;;4.00;2.88;;;;;;;;;;2098734;28;20028;-65
2023/08/13 06:47:51;;;;;;;6.38;3.15;;;;;;;;;;2099325;28;20505;-66
2023/08/13 06:49:10;;;;;;;5.13;2.60;;;;;;;;;;2099081;28;20477;-64
2023/08/13 06:50:29;;;;;;;7.80;3.10;;;;;;;;;;2097098;28;20466;-66
2023/08/13 06:51:48;;;;;;;4.07;3.03;;;;;;;;;;2097499;28;20028;-65
2023/08/13 06:53:07;;;;;;;6.40;3.10;;;;;;;;;;2094705;28;20028;-64
2023/08/13 06:54:26;;;;;;;7.20;3.38;;;;;;;;;;2093709;28;20028;-66
2023/08/13 06:55:45;;;;;;;3.47;2.40;;;;;;;;;;2096627;28;20143;-65
2023/08/13 06:57:04;;;;;;;4.45;2.80;;;;;;;;;;2098179;28;20041;-67
2023/08/13 06:58:23;;;;;;;4.80;2.40;;;;;;;;;;2097920;28;20028;-66
2023/08/13 06:59:42;;;;;;;4.32;2.25;;;;;;;;;;2098583;28;20020;-65
2023/08/13 07:01:02;;;;;;;3.10;2.20;;;;;;;;;;2096994;28;20033;-65
2023/08/13 07:02:21;;;;;;;4.75;2.70;;;;;;;;;;2096835;28;20036;-66
2023/08/13 07:03:41;;;;;;;5.03;2.85;;;;;;;;;;2098667;28;20040;-65
2023/08/13 07:05:03;;;;;;;8.30;2.55;;;;;;;;;;2098664;28;20037;-65
2023/08/13 07:06:23;;;;;;;6.03;2.58;;;;;;;;;;2097708;28;20028;-67
2023/08/13 07:07:42;;;;;;;8.07;3.05;;;;;;;;;;2099195;28;20024;-66
2023/08/13 07:09:03;;;;;;;5.47;2.50;;;;;;;;;;2101965;28;20024;-66
2023/08/13 07:10:22;;;;;;;7.15;2.58;;;;;;;;;;2099150;28;20504;-67
2023/08/13 07:11:42;;;;;;;8.10;2.63;;;;;;;;;;2097869;28;20032;-66
2023/08/13 07:13:01;;;;;;;6.05;3.05;;;;;;;;;;2100093;28;20024;-66
2023/08/13 07:14:20;;;;;;;8.90;2.58;;;;;;;;;;2097631;28;20063;-67
2023/08/13 07:15:39;;;;;;;6.43;2.55;;;;;;;;;;2094969;28;20025;-66
2023/08/13 07:16:57;;;;;;;6.68;2.63;;;;;;;;;;2096852;28;20032;-66
2023/08/13 07:18:16;;;;;;;4.68;2.40;;;;;;;;;;2099985;28;20036;-66
2023/08/13 07:19:36;;;;;;;7.82;2.65;;;;;;;;;;2096343;28;20037;-65
2023/08/13 07:20:55;;;;;;;5.00;2.40;;;;;;;;;;2096032;28;20052;-66
2023/08/13 07:22:15;;;;;;;8.52;2.83;;;;;;;;;;2098149;28;20449;-66
2023/08/13 07:23:35;;;;;;;6.47;2.42;;;;;;;;;;2100041;28;20476;-66
2023/08/13 07:24:53;;;;;;;4.00;2.65;;;;;;;;;;2099898;28;20032;-66
2023/08/13 07:26:13;;;;;;;5.72;2.25;;;;;;;;;;2098302;28;20416;-66
2023/08/13 07:27:33;;;;;;;5.88;3.75;;;;;;;;;;2098390;28;20033;-67
2023/08/13 07:28:52;;;;;;;3.17;2.30;;;;;;;;;;2098197;28;20016;-66
2023/08/13 07:30:11;;;;;;;3.45;2.30;;;;;;;;;;2100148;28;20040;-66
2023/08/13 07:31:31;;;;;;;5.55;2.47;;;;;;;;;;2090198;28;20489;-66
2023/08/13 07:32:51;;;;;;;3.95;2.70;;;;;;;;;;2096229;28;20024;-67
2023/08/13 07:34:09;;;;;;;6.40;2.78;;;;;;;;;;2097360;28;20397;-66
2023/08/13 07:35:29;;;;;;;6.05;2.58;;;;;;;;;;2097070;28;20072;-66
2023/08/13 07:36:47;;;;;;;4.72;2.63;;;;;;;;;;2097591;28;20047;-66
2023/08/13 07:38:07;;;;;;;7.32;2.75;;;;;;;;;;2100331;28;20032;-67
2023/08/13 07:39:25;;;;;;;9.75;3.03;;;;;;;;;;2098692;28;20032;-67
2023/08/13 07:40:44;;;;;;;10.75;3.08;;;;;;;;;;2099591;28;20032;-68
2023/08/13 07:42:04;;;;;;;5.28;3.30;;;;;;;;;;2099413;28;20029;-67
2023/08/13 07:43:24;;;;;;;6.53;2.90;;;;;;;;;;2098976;28;20024;-66
2023/08/13 07:44:42;;;;;;;5.57;3.17;;;;;;;;;;2090626;28;20028;-67
2023/08/13 07:46:03;;;;;;;5.53;3.20;;;;;;;;;;2095316;28;20061;-67
2023/08/13 07:47:22;;;;;;;6.53;3.40;;;;;;;;;;2100266;28;20024;-66
2023/08/13 07:48:41;;;;;;;11.68;3.08;;;;;;;;;;2097516;28;20485;-67
2023/08/13 07:50:00;;;;;;;9.63;3.47;;;;;;;;;;2096995;28;20036;-67
2023/08/13 07:51:20;;;;;;;6.68;3.85;;;;;;;;;;2098084;28;20017;-67
2023/08/13 07:52:42;;;;;;;10.45;3.97;;;;;;;;;;2095171;28;20575;-66
2023/08/13 07:54:01;;;;;;;7.45;3.50;;;;;;;;;;2096022;28;20459;-67
2023/08/13 07:55:20;;;;;;;10.27;3.83;;;;;;;;;;2093041;28;20024;-66
2023/08/13 07:56:39;;;;;;;5.32;3.75;;;;;;;;;;2096518;28;20033;-66